createdAt,value
2017-01-18T00:00:09.780Z,847.76
2017-01-18T00:00:39.804Z,847.81
2017-01-18T00:01:09.836Z,847.78
2017-01-18T00:01:39.872Z,847.77
2017-01-18T00:02:09.892Z,847.78
2017-01-18T00:02:39.917Z,847.79
2017-01-18T00:03:09.947Z,847.77
2017-01-18T00:03:39.975Z,847.82
2017-01-18T00:04:09.999Z,847.82
2017-01-18T00:04:40.031Z,847.84
2017-01-18T00:05:10.057Z,847.79
2017-01-18T00:05:40.085Z,847.79
2017-01-18T00:06:10.113Z,847.79
2017-01-18T00:06:40.140Z,847.8
2017-01-18T00:07:10.168Z,847.78
2017-01-18T00:07:40.194Z,847.79
2017-01-18T00:08:10.222Z,847.79
2017-01-18T00:08:40.252Z,847.72
2017-01-18T00:09:10.279Z,847.74
2017-01-18T00:09:40.305Z,847.72
2017-01-18T00:10:10.334Z,847.72
2017-01-18T00:10:40.360Z,847.72
2017-01-18T00:11:10.389Z,847.75
2017-01-18T00:11:40.414Z,847.71
2017-01-18T00:12:10.443Z,847.71
2017-01-18T00:12:40.472Z,847.73
2017-01-18T00:13:10.502Z,847.77
2017-01-18T00:13:40.526Z,847.72
2017-01-18T00:14:10.556Z,847.67
2017-01-18T00:14:40.584Z,847.66
2017-01-18T00:15:10.612Z,847.68
2017-01-18T00:15:40.636Z,847.66
2017-01-18T00:16:10.674Z,847.68
2017-01-18T00:16:40.692Z,847.67
2017-01-18T00:17:10.719Z,847.69
2017-01-18T00:17:40.747Z,847.71
2017-01-18T00:18:10.775Z,847.68
2017-01-18T00:18:40.806Z,847.6
2017-01-18T00:19:10.831Z,847.59
2017-01-18T00:19:40.859Z,847.62
2017-01-18T00:20:10.885Z,847.64
2017-01-18T00:20:40.914Z,847.68
2017-01-18T00:21:10.937Z,847.65
2017-01-18T00:21:40.970Z,847.66
2017-01-18T00:22:10.995Z,847.64
2017-01-18T00:22:41.025Z,847.64
2017-01-18T00:23:11.054Z,847.59
2017-01-18T00:23:41.080Z,847.57
2017-01-18T00:24:11.106Z,847.54
2017-01-18T00:24:41.132Z,847.53
2017-01-18T00:25:11.160Z,847.56
2017-01-18T00:25:41.190Z,847.46
2017-01-18T00:26:11.218Z,847.52
2017-01-18T00:26:41.242Z,847.51
2017-01-18T00:27:11.273Z,847.49
2017-01-18T00:27:41.298Z,847.51
2017-01-18T00:28:11.327Z,847.49
2017-01-18T00:28:41.354Z,847.49
2017-01-18T00:29:11.383Z,847.47
2017-01-18T00:29:41.411Z,847.49
2017-01-18T00:30:11.439Z,847.5
2017-01-18T00:30:41.465Z,847.48
2017-01-18T00:31:11.492Z,847.49
2017-01-18T00:31:41.520Z,847.54
2017-01-18T00:32:11.548Z,847.56
2017-01-18T00:32:41.576Z,847.55
2017-01-18T00:33:11.606Z,847.54
2017-01-18T00:33:41.633Z,847.54
2017-01-18T00:34:11.659Z,847.55
2017-01-18T00:34:41.686Z,847.55
2017-01-18T00:35:11.715Z,847.55
2017-01-18T00:35:41.738Z,847.5
2017-01-18T00:36:11.766Z,847.51
2017-01-18T00:36:41.797Z,847.56
2017-01-18T00:37:11.824Z,847.51
2017-01-18T00:37:41.853Z,847.53
2017-01-18T00:38:11.883Z,847.48
2017-01-18T00:38:41.907Z,847.48
2017-01-18T00:39:11.936Z,847.47
2017-01-18T00:39:41.961Z,847.52
2017-01-18T00:40:11.990Z,847.47
2017-01-18T00:40:42.017Z,847.42
2017-01-18T00:41:12.044Z,847.43
2017-01-18T00:41:42.071Z,847.41
2017-01-18T00:42:12.106Z,847.38
2017-01-18T00:42:42.129Z,847.38
2017-01-18T00:43:12.156Z,847.45
2017-01-18T00:43:42.182Z,847.42
2017-01-18T00:44:12.207Z,847.49
2017-01-18T00:44:42.238Z,847.49
2017-01-18T00:45:12.265Z,847.5
2017-01-18T00:45:42.292Z,847.51
2017-01-18T00:46:12.322Z,847.52
2017-01-18T00:46:42.348Z,847.5
2017-01-18T00:47:12.376Z,847.54
2017-01-18T00:47:42.404Z,847.56
2017-01-18T00:48:12.431Z,847.58
2017-01-18T00:48:42.459Z,847.62
2017-01-18T00:49:12.486Z,847.63
2017-01-18T00:49:42.513Z,847.66
2017-01-18T00:50:12.540Z,847.68
2017-01-18T00:50:42.568Z,847.68
2017-01-18T00:51:12.594Z,847.75
2017-01-18T00:51:42.625Z,847.76
2017-01-18T00:52:12.650Z,847.76
2017-01-18T00:52:42.677Z,847.83
2017-01-18T00:53:12.706Z,847.88
2017-01-18T00:53:42.734Z,847.9
2017-01-18T00:54:12.760Z,847.92
2017-01-18T00:54:42.787Z,847.96
2017-01-18T00:55:12.817Z,847.92
2017-01-18T00:55:42.846Z,848
2017-01-18T00:56:12.873Z,848.02
2017-01-18T00:56:42.897Z,848.06
2017-01-18T00:57:12.929Z,848.04
2017-01-18T00:57:42.957Z,848.08
2017-01-18T00:58:12.986Z,848.03
2017-01-18T00:58:43.010Z,848.02
2017-01-18T00:59:13.037Z,847.99
2017-01-18T00:59:43.064Z,847.93
2017-01-18T01:00:13.097Z,847.94
2017-01-18T01:00:43.120Z,847.93
2017-01-18T01:01:13.146Z,847.97
2017-01-18T01:01:43.178Z,847.97
2017-01-18T01:02:13.202Z,848.01
2017-01-18T01:02:43.235Z,847.94
2017-01-18T01:03:13.259Z,847.96
2017-01-18T01:03:43.288Z,847.96
2017-01-18T01:04:13.313Z,848.01
2017-01-18T01:04:43.343Z,847.99
2017-01-18T01:05:13.367Z,847.98
2017-01-18T01:05:43.397Z,848.01
2017-01-18T01:06:13.423Z,848.06
2017-01-18T01:06:43.454Z,848.1
2017-01-18T01:07:13.483Z,848.06
2017-01-18T01:07:43.508Z,848.07
2017-01-18T01:08:13.537Z,848.11
2017-01-18T01:08:43.562Z,848.11
2017-01-18T01:09:13.591Z,848.14
2017-01-18T01:09:43.620Z,848.18
2017-01-18T01:10:13.647Z,848.23
2017-01-18T01:10:43.676Z,848.23
2017-01-18T01:11:13.702Z,848.26
2017-01-18T01:11:43.729Z,848.3
2017-01-18T01:12:13.756Z,848.32
2017-01-18T01:12:43.783Z,848.29
2017-01-18T01:13:13.813Z,848.31
2017-01-18T01:13:43.841Z,848.32
2017-01-18T01:14:13.866Z,848.34
2017-01-18T01:14:43.895Z,848.36
2017-01-18T01:15:13.922Z,848.4
2017-01-18T01:15:43.950Z,848.47
2017-01-18T01:16:13.985Z,848.53
2017-01-18T01:16:44.007Z,848.58
2017-01-18T01:17:14.034Z,848.61
2017-01-18T01:17:44.060Z,848.69
2017-01-18T01:18:14.088Z,848.73
2017-01-18T01:18:44.117Z,848.76
2017-01-18T01:19:14.144Z,848.78
2017-01-18T01:19:44.172Z,848.88
2017-01-18T01:20:14.202Z,848.84
2017-01-18T01:20:44.228Z,848.87
2017-01-18T01:21:14.264Z,848.94
2017-01-18T01:21:44.284Z,848.94
2017-01-18T01:22:14.311Z,848.91
2017-01-18T01:22:44.339Z,848.96
2017-01-18T01:23:14.370Z,849
2017-01-18T01:23:44.395Z,848.98
2017-01-18T01:24:14.426Z,848.98
2017-01-18T01:24:44.450Z,849.02
2017-01-18T01:25:14.478Z,849.04
2017-01-18T01:25:44.506Z,849.03
2017-01-18T01:26:14.534Z,849.06
2017-01-18T01:26:44.561Z,849.11
2017-01-18T01:27:14.589Z,849.08
2017-01-18T01:27:44.614Z,849.13
2017-01-18T01:28:14.645Z,849.15
2017-01-18T01:28:44.670Z,849.14
2017-01-18T01:29:14.699Z,849.22
2017-01-18T01:29:44.727Z,849.24
2017-01-18T01:30:14.758Z,849.26
2017-01-18T01:30:44.784Z,849.29
2017-01-18T01:31:14.812Z,849.35
2017-01-18T01:31:44.839Z,849.37
2017-01-18T01:32:14.863Z,849.38
2017-01-18T01:32:44.895Z,849.42
2017-01-18T01:33:14.919Z,849.44
2017-01-18T01:33:44.951Z,849.49
2017-01-18T01:34:14.978Z,849.46
2017-01-18T01:34:45.005Z,849.47
2017-01-18T01:35:15.034Z,849.52
2017-01-18T01:35:45.062Z,849.55
2017-01-18T01:36:15.090Z,849.53
2017-01-18T01:36:45.116Z,849.59
2017-01-18T01:37:15.145Z,849.56
2017-01-18T01:37:45.171Z,849.66
2017-01-18T01:38:15.198Z,849.61
2017-01-18T01:38:45.578Z,849.61
2017-01-18T01:39:15.253Z,849.64
2017-01-18T01:39:45.284Z,849.65
2017-01-18T01:40:15.311Z,849.71
2017-01-18T01:40:45.337Z,849.64
2017-01-18T01:41:15.366Z,849.69
2017-01-18T01:41:45.393Z,849.7
2017-01-18T01:42:15.420Z,849.68
2017-01-18T01:42:45.447Z,849.74
2017-01-18T01:43:15.477Z,849.72
2017-01-18T01:43:45.505Z,849.78
2017-01-18T01:44:15.533Z,849.81
2017-01-18T01:44:45.559Z,849.78
2017-01-18T01:45:15.587Z,849.83
2017-01-18T01:45:45.616Z,849.82
2017-01-18T01:46:15.644Z,849.8
2017-01-18T01:46:45.671Z,849.8
2017-01-18T01:47:15.701Z,849.87
2017-01-18T01:47:45.727Z,849.91
2017-01-18T01:48:15.757Z,849.92
2017-01-18T01:48:45.783Z,849.95
2017-01-18T01:49:15.813Z,849.94
2017-01-18T01:49:45.841Z,850.02
2017-01-18T01:50:15.866Z,850.03
2017-01-18T01:50:45.898Z,850
2017-01-18T01:51:15.922Z,850.04
2017-01-18T01:51:45.950Z,850.08
2017-01-18T01:52:15.977Z,850.1
2017-01-18T01:52:46.009Z,850.18
2017-01-18T01:53:16.034Z,850.19
2017-01-18T01:53:46.064Z,850.24
2017-01-18T01:54:16.091Z,850.24
2017-01-18T01:54:46.117Z,850.28
2017-01-18T01:55:16.141Z,850.28
2017-01-18T01:55:46.173Z,850.34
2017-01-18T01:56:16.198Z,850.41
2017-01-18T01:56:46.227Z,850.47
2017-01-18T01:57:16.254Z,850.47
2017-01-18T01:57:46.283Z,850.49
2017-01-18T01:58:16.310Z,850.53
2017-01-18T01:58:46.342Z,850.59
2017-01-18T01:59:16.368Z,850.67
2017-01-18T01:59:46.395Z,850.66
2017-01-18T02:00:16.424Z,850.69
2017-01-18T02:00:46.452Z,850.66
2017-01-18T02:01:16.479Z,850.67
2017-01-18T02:01:46.504Z,850.77
2017-01-18T02:02:16.535Z,850.78
2017-01-18T02:02:46.561Z,850.85
2017-01-18T02:03:16.591Z,850.93
2017-01-18T02:03:46.617Z,850.97
2017-01-18T02:04:16.646Z,850.98
2017-01-18T02:04:46.674Z,851.05
2017-01-18T02:05:16.702Z,851.1
2017-01-18T02:05:46.730Z,851.13
2017-01-18T02:06:16.758Z,851.14
2017-01-18T02:06:46.786Z,851.19
2017-01-18T02:07:16.814Z,851.23
2017-01-18T02:07:46.843Z,851.27
2017-01-18T02:08:16.870Z,851.28
2017-01-18T02:08:46.909Z,851.34
2017-01-18T02:09:16.927Z,851.32
2017-01-18T02:09:46.955Z,851.33
2017-01-18T02:10:16.983Z,851.38
2017-01-18T02:10:47.009Z,851.39
2017-01-18T02:11:17.036Z,851.45
2017-01-18T02:11:47.066Z,851.44
2017-01-18T02:12:17.093Z,851.48
2017-01-18T02:12:47.122Z,851.49
2017-01-18T02:13:17.149Z,851.55
2017-01-18T02:13:47.177Z,851.51
2017-01-18T02:14:17.208Z,851.58
2017-01-18T02:14:47.233Z,851.56
2017-01-18T02:15:17.260Z,851.61
2017-01-18T02:15:47.288Z,851.66
2017-01-18T02:16:17.317Z,851.69
2017-01-18T02:16:47.344Z,851.71
2017-01-18T02:17:17.369Z,851.77
2017-01-18T02:17:47.402Z,851.79
2017-01-18T02:18:17.429Z,851.8
2017-01-18T02:18:47.456Z,851.82
2017-01-18T02:19:17.483Z,851.88
2017-01-18T02:19:47.514Z,851.86
2017-01-18T02:20:17.540Z,851.92
2017-01-18T02:20:47.565Z,851.92
2017-01-18T02:21:17.595Z,851.97
2017-01-18T02:21:47.623Z,851.98
2017-01-18T02:22:17.653Z,852.01
2017-01-18T02:22:47.680Z,852.08
2017-01-18T02:23:17.708Z,852.13
2017-01-18T02:23:47.734Z,852.16
2017-01-18T02:24:17.764Z,852.16
2017-01-18T02:24:47.792Z,852.27
2017-01-18T02:25:17.821Z,852.27
2017-01-18T02:25:47.846Z,852.3
2017-01-18T02:26:17.875Z,852.38
2017-01-18T02:26:47.904Z,852.35
2017-01-18T02:27:17.930Z,852.39
2017-01-18T02:27:47.959Z,852.4
2017-01-18T02:28:17.987Z,852.42
2017-01-18T02:28:48.015Z,852.41
2017-01-18T02:29:18.044Z,852.47
2017-01-18T02:29:48.070Z,852.45
2017-01-18T02:30:18.098Z,852.43
2017-01-18T02:30:48.128Z,852.46
2017-01-18T02:31:18.156Z,852.49
2017-01-18T02:31:48.184Z,852.53
2017-01-18T02:32:18.212Z,852.51
2017-01-18T02:32:48.240Z,852.55
2017-01-18T02:33:18.267Z,852.57
2017-01-18T02:33:48.296Z,852.58
2017-01-18T02:34:18.325Z,852.61
2017-01-18T02:34:48.351Z,852.63
2017-01-18T02:35:18.381Z,852.66
2017-01-18T02:35:48.409Z,852.71
2017-01-18T02:36:18.437Z,852.73
2017-01-18T02:36:48.464Z,852.75
2017-01-18T02:37:18.494Z,852.73
2017-01-18T02:37:48.520Z,852.74
2017-01-18T02:38:18.548Z,852.78
2017-01-18T02:38:48.574Z,852.79
2017-01-18T02:39:18.603Z,852.83
2017-01-18T02:39:48.633Z,852.82
2017-01-18T02:40:18.659Z,852.86
2017-01-18T02:40:48.690Z,852.85
2017-01-18T02:41:18.717Z,852.9
2017-01-18T02:41:48.746Z,852.9
2017-01-18T02:42:18.773Z,852.96
2017-01-18T02:42:48.801Z,852.96
2017-01-18T02:43:18.829Z,852.94
2017-01-18T02:43:48.855Z,852.97
2017-01-18T02:44:18.886Z,853.02
2017-01-18T02:44:48.915Z,853.02
2017-01-18T02:45:18.941Z,853.05
2017-01-18T02:45:48.971Z,853.14
2017-01-18T02:46:18.998Z,853.17
2017-01-18T02:46:49.027Z,853.25
2017-01-18T02:47:19.056Z,853.22
2017-01-18T02:47:49.081Z,853.23
2017-01-18T02:48:19.111Z,853.27
2017-01-18T02:48:49.139Z,853.26
2017-01-18T02:49:19.168Z,853.24
2017-01-18T02:49:49.195Z,853.3
2017-01-18T02:50:19.225Z,853.29
2017-01-18T02:50:49.249Z,853.29
2017-01-18T02:51:19.280Z,853.3
2017-01-18T02:51:49.307Z,853.35
2017-01-18T02:52:19.335Z,853.43
2017-01-18T02:52:49.363Z,853.44
2017-01-18T02:53:19.393Z,853.51
2017-01-18T02:53:49.421Z,853.47
2017-01-18T02:54:19.446Z,853.52
2017-01-18T02:54:49.476Z,853.57
2017-01-18T02:55:19.504Z,853.59
2017-01-18T02:55:49.533Z,853.57
2017-01-18T02:56:19.559Z,853.66
2017-01-18T02:56:49.588Z,853.62
2017-01-18T02:57:19.617Z,853.65
2017-01-18T02:57:49.646Z,853.68
2017-01-18T02:58:19.672Z,853.72
2017-01-18T02:58:49.702Z,853.7
2017-01-18T02:59:19.728Z,853.73
2017-01-18T02:59:49.755Z,853.8
2017-01-18T03:00:19.788Z,853.81
2017-01-18T03:00:49.814Z,853.81
2017-01-18T03:01:19.841Z,853.81
2017-01-18T03:01:49.872Z,853.84
2017-01-18T03:02:19.896Z,853.81
2017-01-18T03:02:49.927Z,853.8
2017-01-18T03:03:19.952Z,853.82
2017-01-18T03:03:49.984Z,853.87
2017-01-18T03:04:20.012Z,853.87
2017-01-18T03:04:50.037Z,853.88
2017-01-18T03:05:20.063Z,853.9
2017-01-18T03:05:50.096Z,853.89
2017-01-18T03:06:20.124Z,853.93
2017-01-18T03:06:50.156Z,853.89
2017-01-18T03:07:20.176Z,853.89
2017-01-18T03:07:50.206Z,853.91
2017-01-18T03:08:20.233Z,853.92
2017-01-18T03:08:50.263Z,853.93
2017-01-18T03:09:20.292Z,853.88
2017-01-18T03:09:50.319Z,853.86
2017-01-18T03:10:20.348Z,853.84
2017-01-18T03:10:50.376Z,853.81
2017-01-18T03:11:20.402Z,853.85
2017-01-18T03:11:50.430Z,853.82
2017-01-18T03:12:20.461Z,853.84
2017-01-18T03:12:50.488Z,853.78
2017-01-18T03:13:20.515Z,853.82
2017-01-18T03:13:50.544Z,853.86
2017-01-18T03:14:20.573Z,853.95
2017-01-18T03:14:50.603Z,853.97
2017-01-18T03:15:20.627Z,853.97
2017-01-18T03:15:50.657Z,853.97
2017-01-18T03:16:20.685Z,853.98
2017-01-18T03:16:50.714Z,853.93
2017-01-18T03:17:20.743Z,853.85
2017-01-18T03:17:50.769Z,853.84
2017-01-18T03:18:20.797Z,853.82
2017-01-18T03:18:50.827Z,853.8
2017-01-18T03:19:20.855Z,853.85
2017-01-18T03:19:50.882Z,853.84
2017-01-18T03:20:20.910Z,853.85
2017-01-18T03:20:50.938Z,853.83
2017-01-18T03:21:20.968Z,853.83
2017-01-18T03:21:50.991Z,853.82
2017-01-18T03:22:21.023Z,853.79
2017-01-18T03:22:51.050Z,853.77
2017-01-18T03:23:21.078Z,853.73
2017-01-18T03:23:51.107Z,853.75
2017-01-18T03:24:21.136Z,853.69
2017-01-18T03:24:51.165Z,853.63
2017-01-18T03:25:21.192Z,853.61
2017-01-18T03:25:51.219Z,853.56
2017-01-18T03:26:21.250Z,853.55
2017-01-18T03:26:51.274Z,853.47
2017-01-18T03:27:21.304Z,853.48
2017-01-18T03:27:51.330Z,853.43
2017-01-18T03:28:21.361Z,853.42
2017-01-18T03:28:51.388Z,853.42
2017-01-18T03:29:21.418Z,853.38
2017-01-18T03:29:51.443Z,853.26
2017-01-18T03:30:21.470Z,853.21
2017-01-18T03:30:51.499Z,853.22
2017-01-18T03:31:21.529Z,853.13
2017-01-18T03:31:51.561Z,853.11
2017-01-18T03:32:21.584Z,853.06
2017-01-18T03:32:51.611Z,852.99
2017-01-18T03:33:21.641Z,853.03
2017-01-18T03:33:51.672Z,853.03
2017-01-18T03:34:21.697Z,853.01
2017-01-18T03:34:51.725Z,853.01
2017-01-18T03:35:21.752Z,852.94
2017-01-18T03:35:51.782Z,852.87
2017-01-18T03:36:21.807Z,852.82
2017-01-18T03:36:51.835Z,852.8
2017-01-18T03:37:21.863Z,852.74
2017-01-18T03:37:51.890Z,852.7
2017-01-18T03:38:21.921Z,852.63
2017-01-18T03:38:51.948Z,852.6
2017-01-18T03:39:21.979Z,852.56
2017-01-18T03:39:52.004Z,852.48
2017-01-18T03:40:22.032Z,852.49
2017-01-18T03:40:52.061Z,852.47
2017-01-18T03:41:22.087Z,852.45
2017-01-18T03:41:52.117Z,852.42
2017-01-18T03:42:22.143Z,852.42
2017-01-18T03:42:52.174Z,852.37
2017-01-18T03:43:22.201Z,852.4
2017-01-18T03:43:52.228Z,852.31
2017-01-18T03:44:22.255Z,852.33
2017-01-18T03:44:52.282Z,852.33
2017-01-18T03:45:22.311Z,852.3
2017-01-18T03:45:52.341Z,852.26
2017-01-18T03:46:22.366Z,852.23
2017-01-18T03:46:52.396Z,852.2
2017-01-18T03:47:22.425Z,852.16
2017-01-18T03:47:52.457Z,852.07
2017-01-18T03:48:22.484Z,852.06
2017-01-18T03:48:52.507Z,852.07
2017-01-18T03:49:22.539Z,852.02
2017-01-18T03:49:52.563Z,852.02
2017-01-18T03:50:22.591Z,852.04
2017-01-18T03:50:52.619Z,852.02
2017-01-18T03:51:22.646Z,852.02
2017-01-18T03:51:52.674Z,851.99
2017-01-18T03:52:22.699Z,851.97
2017-01-18T03:52:52.729Z,851.93
2017-01-18T03:53:22.765Z,851.82
2017-01-18T03:53:52.785Z,851.75
2017-01-18T03:54:22.812Z,851.76
2017-01-18T03:54:52.842Z,851.74
2017-01-18T03:55:22.867Z,851.68
2017-01-18T03:55:52.897Z,851.61
2017-01-18T03:56:22.924Z,851.6
2017-01-18T03:56:52.953Z,851.58
2017-01-18T03:57:22.981Z,851.57
2017-01-18T03:57:53.007Z,851.49
2017-01-18T03:58:23.035Z,851.43
2017-01-18T03:58:53.063Z,851.44
2017-01-18T03:59:23.090Z,851.44
2017-01-18T03:59:53.117Z,851.42
2017-01-18T04:00:23.146Z,851.39
2017-01-18T04:00:53.173Z,851.37
2017-01-18T04:01:23.202Z,851.32
2017-01-18T04:01:53.231Z,851.26
2017-01-18T04:02:23.256Z,851.27
2017-01-18T04:02:53.285Z,851.25
2017-01-18T04:03:23.314Z,851.22
2017-01-18T04:03:53.341Z,851.18
2017-01-18T04:04:23.367Z,851.22
2017-01-18T04:04:53.397Z,851.19
2017-01-18T04:05:23.423Z,851.15
2017-01-18T04:05:53.453Z,851.18
2017-01-18T04:06:23.481Z,851.16
2017-01-18T04:06:53.513Z,851.2
2017-01-18T04:07:23.537Z,851.22
2017-01-18T04:07:53.564Z,851.2
2017-01-18T04:08:23.592Z,851.22
2017-01-18T04:08:53.619Z,851.21
2017-01-18T04:09:23.649Z,851.18
2017-01-18T04:09:53.675Z,851.16
2017-01-18T04:10:23.702Z,851.14
2017-01-18T04:10:53.734Z,851.14
2017-01-18T04:11:23.759Z,851.14
2017-01-18T04:11:53.788Z,851.12
2017-01-18T04:12:23.813Z,851.11
2017-01-18T04:12:53.842Z,851.09
2017-01-18T04:13:23.873Z,851.09
2017-01-18T04:13:53.899Z,851.07
2017-01-18T04:14:23.924Z,850.98
2017-01-18T04:14:53.953Z,850.99
2017-01-18T04:15:23.981Z,850.94
2017-01-18T04:15:54.009Z,850.91
2017-01-18T04:16:24.035Z,850.89
2017-01-18T04:16:54.063Z,850.89
2017-01-18T04:17:24.092Z,850.86
2017-01-18T04:17:54.120Z,850.82
2017-01-18T04:18:24.149Z,850.83
2017-01-18T04:18:54.174Z,850.79
2017-01-18T04:19:24.204Z,850.76
2017-01-18T04:19:54.228Z,850.74
2017-01-18T04:20:24.256Z,850.72
2017-01-18T04:20:54.284Z,850.69
2017-01-18T04:21:24.314Z,850.69
2017-01-18T04:21:54.340Z,850.64
2017-01-18T04:22:24.367Z,850.65
2017-01-18T04:22:54.395Z,850.64
2017-01-18T04:23:24.424Z,850.61
2017-01-18T04:23:54.450Z,850.56
2017-01-18T04:24:24.481Z,850.59
2017-01-18T04:24:54.509Z,850.58
2017-01-18T04:25:24.534Z,850.58
2017-01-18T04:25:54.560Z,850.54
2017-01-18T04:26:24.589Z,850.56
2017-01-18T04:26:54.617Z,850.55
2017-01-18T04:27:24.645Z,850.54
2017-01-18T04:27:54.672Z,850.56
2017-01-18T04:28:24.699Z,850.54
2017-01-18T04:28:54.730Z,850.52
2017-01-18T04:29:24.755Z,850.52
2017-01-18T04:29:54.783Z,850.45
2017-01-18T04:30:24.810Z,850.46
2017-01-18T04:30:54.839Z,850.45
2017-01-18T04:31:24.867Z,850.47
2017-01-18T04:31:54.894Z,850.44
2017-01-18T04:32:24.920Z,850.46
2017-01-18T04:32:54.951Z,850.46
2017-01-18T04:33:24.977Z,850.45
2017-01-18T04:33:55.007Z,850.43
2017-01-18T04:34:25.031Z,850.44
2017-01-18T04:34:55.062Z,850.4
2017-01-18T04:35:25.088Z,850.4
2017-01-18T04:35:55.116Z,850.38
2017-01-18T04:36:25.143Z,850.42
2017-01-18T04:36:55.169Z,850.43
2017-01-18T04:37:25.197Z,850.44
2017-01-18T04:37:55.224Z,850.45
2017-01-18T04:38:25.254Z,850.43
2017-01-18T04:38:55.281Z,850.45
2017-01-18T04:39:25.309Z,850.43
2017-01-18T04:39:55.336Z,850.43
2017-01-18T04:40:25.365Z,850.46
2017-01-18T04:40:55.392Z,850.49
2017-01-18T04:41:25.420Z,850.48
2017-01-18T04:41:55.447Z,850.46
2017-01-18T04:42:25.477Z,850.43
2017-01-18T04:42:55.503Z,850.43
2017-01-18T04:43:25.530Z,850.44
2017-01-18T04:43:55.559Z,850.44
2017-01-18T04:44:25.587Z,850.39
2017-01-18T04:44:55.615Z,850.43
2017-01-18T04:45:25.644Z,850.47
2017-01-18T04:45:55.668Z,850.47
2017-01-18T04:46:25.694Z,850.46
2017-01-18T04:46:55.725Z,850.43
2017-01-18T04:47:25.755Z,850.43
2017-01-18T04:47:55.781Z,850.47
2017-01-18T04:48:25.809Z,850.47
2017-01-18T04:48:55.834Z,850.48
2017-01-18T04:49:25.864Z,850.46
2017-01-18T04:49:55.892Z,850.48
2017-01-18T04:50:25.919Z,850.47
2017-01-18T04:50:55.946Z,850.44
2017-01-18T04:51:25.974Z,850.46
2017-01-18T04:51:56.004Z,850.47
2017-01-18T04:52:26.029Z,850.44
2017-01-18T04:52:56.059Z,850.46
2017-01-18T04:53:26.084Z,850.46
2017-01-18T04:53:56.115Z,850.45
2017-01-18T04:54:26.142Z,850.42
2017-01-18T04:54:56.169Z,850.42
2017-01-18T04:55:26.198Z,850.38
2017-01-18T04:55:56.227Z,850.35
2017-01-18T04:56:26.252Z,850.36
2017-01-18T04:56:56.278Z,850.37
2017-01-18T04:57:26.307Z,850.37
2017-01-18T04:57:56.334Z,850.36
2017-01-18T04:58:26.363Z,850.34
2017-01-18T04:58:56.391Z,850.36
2017-01-18T04:59:26.417Z,850.31
2017-01-18T04:59:56.445Z,850.36
2017-01-18T05:00:26.475Z,850.36
2017-01-18T05:00:56.505Z,850.36
2017-01-18T05:01:26.529Z,850.28
2017-01-18T05:01:56.557Z,850.3
2017-01-18T05:02:26.584Z,850.32
2017-01-18T05:02:56.613Z,850.33
2017-01-18T05:03:26.640Z,850.39
2017-01-18T05:03:56.666Z,850.45
2017-01-18T05:04:26.696Z,850.51
2017-01-18T05:04:56.724Z,850.6
2017-01-18T05:05:26.750Z,850.68
2017-01-18T05:05:56.779Z,850.68
2017-01-18T05:06:26.806Z,850.76
2017-01-18T05:06:56.834Z,850.77
2017-01-18T05:07:26.860Z,850.82
2017-01-18T05:07:56.889Z,850.89
2017-01-18T05:08:26.917Z,850.91
2017-01-18T05:08:56.946Z,850.94
2017-01-18T05:09:26.975Z,850.9
2017-01-18T05:09:57.001Z,850.98
2017-01-18T05:10:27.027Z,851.02
2017-01-18T05:10:57.056Z,851.05
2017-01-18T05:11:27.086Z,851.08
2017-01-18T05:11:57.115Z,851.16
2017-01-18T05:12:27.140Z,851.17
2017-01-18T05:12:57.165Z,851.22
2017-01-18T05:13:27.196Z,851.25
2017-01-18T05:13:57.223Z,851.29
2017-01-18T05:14:27.250Z,851.31
2017-01-18T05:14:57.279Z,851.31
2017-01-18T05:15:27.307Z,851.37
2017-01-18T05:15:57.334Z,851.4
2017-01-18T05:16:27.361Z,851.38
2017-01-18T05:16:57.391Z,851.43
2017-01-18T05:17:27.418Z,851.46
2017-01-18T05:17:57.447Z,851.55
2017-01-18T05:18:27.472Z,851.61
2017-01-18T05:18:57.503Z,851.62
2017-01-18T05:19:27.528Z,851.62
2017-01-18T05:19:57.557Z,851.62
2017-01-18T05:20:27.588Z,851.7
2017-01-18T05:20:57.611Z,851.67
2017-01-18T05:21:27.643Z,851.69
2017-01-18T05:21:57.670Z,851.71
2017-01-18T05:22:27.696Z,851.71
2017-01-18T05:22:57.724Z,851.69
2017-01-18T05:23:27.751Z,851.7
2017-01-18T05:23:57.779Z,851.69
2017-01-18T05:24:27.806Z,851.63
2017-01-18T05:24:57.835Z,851.57
2017-01-18T05:25:27.864Z,851.63
2017-01-18T05:25:57.891Z,851.63
2017-01-18T05:26:27.919Z,851.63
2017-01-18T05:26:57.945Z,851.62
2017-01-18T05:27:27.975Z,851.65
2017-01-18T05:27:58.002Z,851.59
2017-01-18T05:28:28.029Z,851.62
2017-01-18T05:28:58.057Z,851.59
2017-01-18T05:29:28.086Z,851.63
2017-01-18T05:29:58.112Z,851.64
2017-01-18T05:30:28.140Z,851.64
2017-01-18T05:30:58.169Z,851.71
2017-01-18T05:31:28.195Z,851.73
2017-01-18T05:31:58.227Z,851.78
2017-01-18T05:32:28.254Z,851.75
2017-01-18T05:32:58.281Z,851.78
2017-01-18T05:33:28.310Z,851.76
2017-01-18T05:33:58.336Z,851.78
2017-01-18T05:34:28.361Z,851.78
2017-01-18T05:34:58.392Z,851.79
2017-01-18T05:35:28.420Z,851.76
2017-01-18T05:35:58.449Z,851.79
2017-01-18T05:36:28.474Z,851.79
2017-01-18T05:36:58.506Z,851.78
2017-01-18T05:37:28.532Z,851.78
2017-01-18T05:37:58.557Z,851.86
2017-01-18T05:38:28.588Z,851.86
2017-01-18T05:38:58.617Z,851.89
2017-01-18T05:39:28.642Z,851.9
2017-01-18T05:39:58.670Z,851.96
2017-01-18T05:40:28.699Z,852
2017-01-18T05:40:58.726Z,852.07
2017-01-18T05:41:28.754Z,852.11
2017-01-18T05:41:58.782Z,852.17
2017-01-18T05:42:28.813Z,852.18
2017-01-18T05:42:58.836Z,852.25
2017-01-18T05:43:28.869Z,852.26
2017-01-18T05:43:58.895Z,852.28
2017-01-18T05:44:28.919Z,852.36
2017-01-18T05:44:58.951Z,852.36
2017-01-18T05:45:28.979Z,852.41
2017-01-18T05:45:59.006Z,852.43
2017-01-18T05:46:29.035Z,852.44
2017-01-18T05:46:59.061Z,852.48
2017-01-18T05:47:29.089Z,852.47
2017-01-18T05:47:59.117Z,852.53
2017-01-18T05:48:29.146Z,852.53
2017-01-18T05:48:59.174Z,852.53
2017-01-18T05:49:29.202Z,852.58
2017-01-18T05:49:59.229Z,852.56
2017-01-18T05:50:29.259Z,852.58
2017-01-18T05:50:59.287Z,852.55
2017-01-18T05:51:29.317Z,852.58
2017-01-18T05:51:59.340Z,852.6
2017-01-18T05:52:29.369Z,852.55
2017-01-18T05:52:59.396Z,852.53
2017-01-18T05:53:29.428Z,852.59
2017-01-18T05:53:59.454Z,852.66
2017-01-18T05:54:29.480Z,852.7
2017-01-18T05:54:59.510Z,852.7
2017-01-18T05:55:29.537Z,852.74
2017-01-18T05:55:59.562Z,852.72
2017-01-18T05:56:29.590Z,852.76
2017-01-18T05:56:59.620Z,852.71
2017-01-18T05:57:29.650Z,852.71
2017-01-18T05:57:59.679Z,852.69
2017-01-18T05:58:29.705Z,852.67
2017-01-18T05:58:59.736Z,852.66
2017-01-18T05:59:29.762Z,852.66
2017-01-18T05:59:59.787Z,852.67
2017-01-18T06:00:29.818Z,852.65
2017-01-18T06:00:59.845Z,852.65
2017-01-18T06:01:29.871Z,852.63
2017-01-18T06:01:59.903Z,852.64
2017-01-18T06:02:29.929Z,852.67
2017-01-18T06:02:59.957Z,852.63
2017-01-18T06:03:29.983Z,852.65
2017-01-18T06:04:00.015Z,852.67
2017-01-18T06:04:30.040Z,852.7
2017-01-18T06:05:00.070Z,852.71
2017-01-18T06:05:30.098Z,852.72
2017-01-18T06:06:00.124Z,852.71
2017-01-18T06:06:30.156Z,852.69
2017-01-18T06:07:00.179Z,852.67
2017-01-18T06:07:30.210Z,852.69
2017-01-18T06:08:00.235Z,852.73
2017-01-18T06:08:30.266Z,852.73
2017-01-18T06:09:00.292Z,852.81
2017-01-18T06:09:30.323Z,852.78
2017-01-18T06:10:00.350Z,852.78
2017-01-18T06:10:30.377Z,852.78
2017-01-18T06:11:00.403Z,852.78
2017-01-18T06:11:30.433Z,852.8
2017-01-18T06:12:00.461Z,852.78
2017-01-18T06:12:30.490Z,852.79
2017-01-18T06:13:00.519Z,852.77
2017-01-18T06:13:30.544Z,852.79
2017-01-18T06:14:00.570Z,852.79
2017-01-18T06:14:30.600Z,852.82
2017-01-18T06:15:00.628Z,852.83
2017-01-18T06:15:30.656Z,852.87